Wilson Lisbon — 5BNU3 — position and weather

sailwx.info

Track history (hours):
 
Tides and Currents Weather Stations Pressure Air Temp Water Temp Dewpoint Dewpoint Depression Visibility Wind Speed Wind Dir Waves Ship Positions

Wilson Lisbon

Last reported at 2014-Nov-21 16:29 UTC. Time now 2014-Nov-21 16:35 UTC.
Position N 50°43' W 001°59'.

Length 90 m; draft 3.6 m.

Type: Ship. MMSI: 212376000.

Date/timePositionNaut miles runAvg speedWind from/ knotsBaromVisibWave heightAir tempDewpointWater temp
2014-Nov-21 16:29N 50°43' W 001°59'0 0.0
2014-Nov-21 15:29N 50°43' W 001°59'0 0.0
2014-Nov-21 14:29N 50°43' W 001°59'0 0.0
2014-Nov-21 13:29N 50°43' W 001°59'0 0.0
2014-Nov-21 12:23N 50°43' W 001°59'0 0.0
2014-Nov-21 10:17N 50°43' W 001°59'0 0.0
2014-Nov-20 21:29N 50°43' W 001°59'0 0.0
2014-Nov-20 20:29N 50°43' W 001°59'0 0.0
2014-Nov-20 19:29N 50°43' W 001°59'0 0.0
2014-Nov-20 18:32N 50°43' W 001°59'0 0.0
2014-Nov-20 17:29N 50°43' W 001°59'0 0.0
2014-Nov-20 16:29N 50°43' W 001°59'0 0.0
2014-Nov-20 15:29N 50°43' W 001°59'0 0.0
2014-Nov-20 14:29N 50°43' W 001°59'0 0.0
2014-Nov-20 13:29N 50°43' W 001°59'0 0.0
2014-Nov-20 12:29N 50°43' W 001°59'0 0.0
2014-Nov-19 21:29N 50°43' W 001°59'0 0.0
2014-Nov-19 20:29N 50°43' W 001°59'0 0.0
2014-Nov-19 19:29N 50°43' W 001°59'0 0.0
2014-Nov-19 18:29N 50°43' W 001°59'0 0.0
2014-Nov-19 17:23N 50°43' W 001°59'0 0.0
2014-Nov-19 16:29N 50°43' W 001°59'0 0.0
2014-Nov-19 15:29N 50°43' W 001°59'0 0.0
2014-Nov-19 14:29N 50°43' W 001°59'0 0.0
2014-Nov-19 13:29N 50°43' W 001°59'0 0.0
2014-Nov-19 12:23N 50°43' W 001°59'0 0.0
2014-Nov-19 11:29N 50°43' W 001°59'0 0.0
2014-Nov-19 10:23N 50°43' W 001°59'0 0.0
2014-Nov-19 09:29N 50°43' W 001°59'1 0.4
2014-Nov-19 06:25N 50°42' W 001°57'6 6.4
2014-Nov-19 05:33N 50°38' W 001°52'38 7.6
2014-Nov-19 00:33N 50°22' W 002°46'8 7.9
2014-Nov-18 23:33N 50°20' W 002°58'7 7.3
2014-Nov-18 22:33N 50°17' W 003°09'6 6.4
2014-Nov-18 21:33N 50°15' W 003°19'8 7.0
2014-Nov-18 20:25N 50°12' W 003°30'171 7.5
2014-Nov-17 21:33N 51°21' W 007°38'1010.5
2014-Nov-17 20:33N 51°29' W 007°49'1010.3
2014-Nov-17 19:33N 51°36' W 008°01'9 9.0
2014-Nov-17 18:33N 51°43' W 008°11'9 9.1
2014-Nov-17 17:33N 51°51' W 008°17'7 7.2
2014-Nov-17 16:32N 51°54' W 008°28'0 0.0
2014-Nov-17 15:32N 51°54' W 008°28'0 0.0
2014-Nov-17 14:33N 51°54' W 008°28'0 0.0
2014-Nov-17 13:33N 51°54' W 008°28'0 0.0
2014-Nov-17 12:33N 51°54' W 008°28'0 0.0
2014-Nov-17 11:33N 51°54' W 008°28'0 0.0
2014-Nov-17 10:33N 51°54' W 008°28'0 0.0
2014-Nov-17 09:33N 51°54' W 008°28'0 0.0
2014-Nov-17 08:30N 51°54' W 008°28'0 0.0
2014-Nov-17 07:33N 51°54' W 008°28'0 0.0
2014-Nov-17 06:33N 51°54' W 008°28'0 0.0
2014-Nov-17 05:33N 51°54' W 008°28'0 0.0
2014-Nov-17 04:33N 51°54' W 008°28'0 0.0
2014-Nov-17 03:33N 51°54' W 008°28'0 0.0
2014-Nov-17 02:33N 51°54' W 008°28'0 0.0
2014-Nov-17 01:33N 51°54' W 008°28'0 0.0
2014-Nov-17 00:33N 51°54' W 008°28'0 0.0
2014-Nov-16 23:33N 51°54' W 008°28'0 0.0
2014-Nov-16 22:32N 51°54' W 008°28'0 0.0
2014-Nov-16 21:29N 51°54' W 008°28'0 0.0
2014-Nov-16 20:32N 51°54' W 008°28'0 0.0
2014-Nov-16 19:32N 51°54' W 008°28'0 0.0
2014-Nov-16 18:32N 51°54' W 008°28'0 0.0
2014-Nov-16 17:32N 51°54' W 008°28'0 0.0
2014-Nov-16 16:32N 51°54' W 008°28'0 0.0
2014-Nov-16 15:32N 51°54' W 008°28'0 0.0
2014-Nov-16 14:32N 51°54' W 008°28'0 0.0
2014-Nov-16 13:32N 51°54' W 008°28'4 4.3
2014-Nov-16 12:33N 51°53' W 008°21'7 6.7
2014-Nov-16 11:33N 51°47' W 008°16'9 9.1
2014-Nov-16 10:33N 51°47' W 008°01'1010.5
2014-Nov-16 09:34N 51°50' W 007°45'1010.4
2014-Nov-16 08:33N 51°53' W 007°29'1010.3
2014-Nov-16 07:33N 51°56' W 007°13'1010.2
2014-Nov-16 06:33N 51°59' W 006°57'1010.0
2014-Nov-16 05:33N 52°02' W 006°41'10 9.7
2014-Nov-16 04:33N 52°05' W 006°26'9 9.0
2014-Nov-16 03:32N 52°09' W 006°13'8 8.2
2014-Nov-16 02:33N 52°15' W 006°05'9 8.6
2014-Nov-16 01:34N 52°23' W 006°01'78 9.7
2014-Nov-15 17:31N 53°41' W 006°07'4 0.2
2014-Nov-14 16:31N 53°44' W 006°11'1 0.8
2014-Nov-14 15:33N 53°45' W 006°11'0 0.0
2014-Nov-14 14:21N 53°45' W 006°11'0 0.0
2014-Nov-14 12:33N 53°45' W 006°11'0 0.0
2014-Nov-14 11:33N 53°45' W 006°11'0 0.0
2014-Nov-14 10:30N 53°45' W 006°11'0 0.0
2014-Nov-14 09:24N 53°45' W 006°11'0 0.0
2014-Nov-14 08:33N 53°45' W 006°11'0 0.0
2014-Nov-14 07:33N 53°45' W 006°11'0 0.1
2014-Nov-14 06:27N 53°45' W 006°11'0 0.0
2014-Nov-14 05:18N 53°45' W 006°11'0 0.0
2014-Nov-14 04:33N 53°45' W 006°11'0 0.2
2014-Nov-14 03:33N 53°45' W 006°10'1 0.7
2014-Nov-14 02:33N 53°44' W 006°10'4 4.4
2014-Nov-14 01:33N 53°48' W 006°06'4 3.8
2014-Nov-14 00:33N 53°51' W 006°02'5 5.2
2014-Nov-13 23:33N 53°54' W 005°56'6 6.0
2014-Nov-13 22:33N 53°59' W 005°49'12 6.1
2014-Nov-13 20:33N 54°08' W 005°35'6 5.6
2014-Nov-13 19:32N 54°13' W 005°29'5 5.4
2014-Nov-13 18:33N 54°17' W 005°23'6 6.0
2014-Nov-13 17:33N 54°22' W 005°20'6 6.1
2014-Nov-13 16:33N 54°29' W 005°20'6 5.5
2014-Nov-13 15:33N 54°34' W 005°21'7 6.7
2014-Nov-13 14:33N 54°40' W 005°25'7 7.3
2014-Nov-13 13:33N 54°47' W 005°30'24 7.4
2014-Nov-13 10:23N 55°07' W 005°50'6 7.1
2014-Nov-13 09:33N 55°12' W 005°56'6 6.2
2014-Nov-13 08:33N 55°17' W 006°02'5 5.0
2014-Nov-13 07:33N 55°21' W 006°08'7 6.5
2014-Nov-13 06:33N 55°23' W 006°19'7 7.3
2014-Nov-13 05:33N 55°27' W 006°30'8 7.9
2014-Nov-13 04:33N 55°33' W 006°39'8 7.8
2014-Nov-13 03:33N 55°40' W 006°47'9 8.6
2014-Nov-13 02:33N 55°47' W 006°55'161 8.4
2014-Nov-12 07:33N 58°22' W 005°37'40 9.7
2014-Nov-12 03:26N 58°43' W 004°32'910.3
2014-Nov-12 02:33N 58°43' W 004°15'10 9.9
2014-Nov-12 01:33N 58°44' W 003°56'9 9.2
2014-Nov-12 00:33N 58°44' W 003°38'9 8.6
2014-Nov-11 23:30N 58°44' W 003°20'7 7.0
2014-Nov-11 22:33N 58°43' W 003°08'5 5.2
2014-Nov-11 21:33N 58°42' W 002°58'8 8.4
2014-Nov-11 20:33N 58°41' W 002°42'  
Track history (hours):
 
Tides and Currents Weather Stations Pressure Air Temp Water Temp Dewpoint Dewpoint Depression Visibility Wind Speed Wind Dir Waves Ship Positions

Wilson Lisbon

Last reported at 2014-Nov-21 16:29 UTC. Time now 2014-Nov-21 16:35 UTC.
Position N 50°43' W 001°59'.

Length 90 m; draft 3.6 m.

Type: Ship. MMSI: 212376000.

Date/timePositionNaut miles runAvg speedWind from/ knotsBaromVisibWave heightAir tempDewpointWater temp
2014-Nov-21 16:29N 50°43' W 001°59'0 0.0
2014-Nov-21 15:29N 50°43' W 001°59'0 0.0
2014-Nov-21 14:29N 50°43' W 001°59'0 0.0
2014-Nov-21 13:29N 50°43' W 001°59'0 0.0
2014-Nov-21 12:23N 50°43' W 001°59'0 0.0
2014-Nov-21 10:17N 50°43' W 001°59'0 0.0
2014-Nov-20 21:29N 50°43' W 001°59'0 0.0
2014-Nov-20 20:29N 50°43' W 001°59'0 0.0
2014-Nov-20 19:29N 50°43' W 001°59'0 0.0
2014-Nov-20 18:32N 50°43' W 001°59'0 0.0
2014-Nov-20 17:29N 50°43' W 001°59'0 0.0
2014-Nov-20 16:29N 50°43' W 001°59'0 0.0
2014-Nov-20 15:29N 50°43' W 001°59'0 0.0
2014-Nov-20 14:29N 50°43' W 001°59'0 0.0
2014-Nov-20 13:29N 50°43' W 001°59'0 0.0
2014-Nov-20 12:29N 50°43' W 001°59'0 0.0
2014-Nov-19 21:29N 50°43' W 001°59'0 0.0
2014-Nov-19 20:29N 50°43' W 001°59'0 0.0
2014-Nov-19 19:29N 50°43' W 001°59'0 0.0
2014-Nov-19 18:29N 50°43' W 001°59'0 0.0
2014-Nov-19 17:23N 50°43' W 001°59'0 0.0
2014-Nov-19 16:29N 50°43' W 001°59'0 0.0
2014-Nov-19 15:29N 50°43' W 001°59'0 0.0
2014-Nov-19 14:29N 50°43' W 001°59'0 0.0
2014-Nov-19 13:29N 50°43' W 001°59'0 0.0
2014-Nov-19 12:23N 50°43' W 001°59'0 0.0
2014-Nov-19 11:29N 50°43' W 001°59'0 0.0
2014-Nov-19 10:23N 50°43' W 001°59'0 0.0
2014-Nov-19 09:29N 50°43' W 001°59'1 0.4
2014-Nov-19 06:25N 50°42' W 001°57'6 6.4
2014-Nov-19 05:33N 50°38' W 001°52'38 7.6
2014-Nov-19 00:33N 50°22' W 002°46'8 7.9
2014-Nov-18 23:33N 50°20' W 002°58'7 7.3
2014-Nov-18 22:33N 50°17' W 003°09'6 6.4
2014-Nov-18 21:33N 50°15' W 003°19'8 7.0
2014-Nov-18 20:25N 50°12' W 003°30'171 7.5
2014-Nov-17 21:33N 51°21' W 007°38'1010.5
2014-Nov-17 20:33N 51°29' W 007°49'1010.3
2014-Nov-17 19:33N 51°36' W 008°01'9 9.0
2014-Nov-17 18:33N 51°43' W 008°11'9 9.1
2014-Nov-17 17:33N 51°51' W 008°17'7 7.2
2014-Nov-17 16:32N 51°54' W 008°28'0 0.0
2014-Nov-17 15:32N 51°54' W 008°28'0 0.0
2014-Nov-17 14:33N 51°54' W 008°28'0 0.0
2014-Nov-17 13:33N 51°54' W 008°28'0 0.0
2014-Nov-17 12:33N 51°54' W 008°28'0 0.0
2014-Nov-17 11:33N 51°54' W 008°28'0 0.0
2014-Nov-17 10:33N 51°54' W 008°28'0 0.0
2014-Nov-17 09:33N 51°54' W 008°28'0 0.0
2014-Nov-17 08:30N 51°54' W 008°28'0 0.0
2014-Nov-17 07:33N 51°54' W 008°28'0 0.0
2014-Nov-17 06:33N 51°54' W 008°28'0 0.0
2014-Nov-17 05:33N 51°54' W 008°28'0 0.0
2014-Nov-17 04:33N 51°54' W 008°28'0 0.0
2014-Nov-17 03:33N 51°54' W 008°28'0 0.0
2014-Nov-17 02:33N 51°54' W 008°28'0 0.0
2014-Nov-17 01:33N 51°54' W 008°28'0 0.0
2014-Nov-17 00:33N 51°54' W 008°28'0 0.0
2014-Nov-16 23:33N 51°54' W 008°28'0 0.0
2014-Nov-16 22:32N 51°54' W 008°28'0 0.0
2014-Nov-16 21:29N 51°54' W 008°28'0 0.0
2014-Nov-16 20:32N 51°54' W 008°28'0 0.0
2014-Nov-16 19:32N 51°54' W 008°28'0 0.0
2014-Nov-16 18:32N 51°54' W 008°28'0 0.0
2014-Nov-16 17:32N 51°54' W 008°28'0 0.0
2014-Nov-16 16:32N 51°54' W 008°28'0 0.0
2014-Nov-16 15:32N 51°54' W 008°28'0 0.0
2014-Nov-16 14:32N 51°54' W 008°28'0 0.0
2014-Nov-16 13:32N 51°54' W 008°28'4 4.3
2014-Nov-16 12:33N 51°53' W 008°21'7 6.7
2014-Nov-16 11:33N 51°47' W 008°16'9 9.1
2014-Nov-16 10:33N 51°47' W 008°01'1010.5
2014-Nov-16 09:34N 51°50' W 007°45'1010.4
2014-Nov-16 08:33N 51°53' W 007°29'1010.3
2014-Nov-16 07:33N 51°56' W 007°13'1010.2
2014-Nov-16 06:33N 51°59' W 006°57'1010.0
2014-Nov-16 05:33N 52°02' W 006°41'10 9.7
2014-Nov-16 04:33N 52°05' W 006°26'9 9.0
2014-Nov-16 03:32N 52°09' W 006°13'8 8.2
2014-Nov-16 02:33N 52°15' W 006°05'9 8.6
2014-Nov-16 01:34N 52°23' W 006°01'78 9.7
2014-Nov-15 17:31N 53°41' W 006°07'4 0.2
2014-Nov-14 16:31N 53°44' W 006°11'1 0.8
2014-Nov-14 15:33N 53°45' W 006°11'0 0.0
2014-Nov-14 14:21N 53°45' W 006°11'0 0.0
2014-Nov-14 12:33N 53°45' W 006°11'0 0.0
2014-Nov-14 11:33N 53°45' W 006°11'0 0.0
2014-Nov-14 10:30N 53°45' W 006°11'0 0.0
2014-Nov-14 09:24N 53°45' W 006°11'0 0.0
2014-Nov-14 08:33N 53°45' W 006°11'0 0.0
2014-Nov-14 07:33N 53°45' W 006°11'0 0.1
2014-Nov-14 06:27N 53°45' W 006°11'0 0.0
2014-Nov-14 05:18N 53°45' W 006°11'0 0.0
2014-Nov-14 04:33N 53°45' W 006°11'0 0.2
2014-Nov-14 03:33N 53°45' W 006°10'1 0.7
2014-Nov-14 02:33N 53°44' W 006°10'4 4.4
2014-Nov-14 01:33N 53°48' W 006°06'4 3.8
2014-Nov-14 00:33N 53°51' W 006°02'5 5.2
2014-Nov-13 23:33N 53°54' W 005°56'6 6.0
2014-Nov-13 22:33N 53°59' W 005°49'12 6.1
2014-Nov-13 20:33N 54°08' W 005°35'6 5.6
2014-Nov-13 19:32N 54°13' W 005°29'5 5.4
2014-Nov-13 18:33N 54°17' W 005°23'6 6.0
2014-Nov-13 17:33N 54°22' W 005°20'6 6.1
2014-Nov-13 16:33N 54°29' W 005°20'6 5.5
2014-Nov-13 15:33N 54°34' W 005°21'7 6.7
2014-Nov-13 14:33N 54°40' W 005°25'7 7.3
2014-Nov-13 13:33N 54°47' W 005°30'24 7.4
2014-Nov-13 10:23N 55°07' W 005°50'6 7.1
2014-Nov-13 09:33N 55°12' W 005°56'6 6.2
2014-Nov-13 08:33N 55°17' W 006°02'5 5.0
2014-Nov-13 07:33N 55°21' W 006°08'7 6.5
2014-Nov-13 06:33N 55°23' W 006°19'7 7.3
2014-Nov-13 05:33N 55°27' W 006°30'8 7.9
2014-Nov-13 04:33N 55°33' W 006°39'8 7.8
2014-Nov-13 03:33N 55°40' W 006°47'9 8.6
2014-Nov-13 02:33N 55°47' W 006°55'161 8.4
2014-Nov-12 07:33N 58°22' W 005°37'40 9.7
2014-Nov-12 03:26N 58°43' W 004°32'910.3
2014-Nov-12 02:33N 58°43' W 004°15'10 9.9
2014-Nov-12 01:33N 58°44' W 003°56'9 9.2
2014-Nov-12 00:33N 58°44' W 003°38'9 8.6
2014-Nov-11 23:30N 58°44' W 003°20'7 7.0
2014-Nov-11 22:33N 58°43' W 003°08'5 5.2
2014-Nov-11 21:33N 58°42' W 002°58'8 8.4
2014-Nov-11 20:33N 58°41' W 002°42'  

Dump ship's entire track history